メインページ
METAR-TAF:

METAR-TAF

空港 :

バグダード国際空港

バグダード, イラク

緯度: 33-15-45N, 経度: 44-14-04E, 海抜: 35m

現時点の気象観測

当レポートは35分前の00:00(UTC)に作成
南東の風 10kt
気温 15°C
湿度 88%
気圧 1012 hPa
視程: 8000m
高度1100ftの曇り

METAR: ORBI 150000Z 13010KT 8000 OVC011 15/13 Q1012 NOSIG

時間: 03:35 (00:35 UTC)

予報

当レポートは8時間35分前の16:00(UTC)に作成
予報は14日の 18時(UTC)から 15日の 18時(UTC)まで有効
東/南東の風 10kt
視程: 6000m
高度2500ftの雲はほとんどない, 積乱雲.
高度3000ftの雲は散在している
15日の 01時(UTC)から 05日の 03時(UTC)まで徐々に
視程: 8000m

TAF: ORBI 141600Z 1418/1518 12010KT 6000 -TSSHRA FEW025CB SCT030 BECMG 1501/0503 8000 NSC

4,000以上の空港の気象観測と天気予報(METAR報とTAF報)

利用可能な観測所は地図上に黄色い丸と赤い丸で示す。

丸の上にカーソルを重ねると観測所名を参照できる。

次にクリックすると気象観測と天気予報を参照できる。

マップの切り替え:黒色「×」印の緑ボタンをクリックして拡大、「-」印の緑ボタンをクリックして縮小、緑色の三角印をクリックして隣りの地図に切り替え


METAR-TAF: